createdAt,value
2018-04-13T00:00:46.870Z,45.80
2018-04-13T00:03:14.490Z,44.70
2018-04-13T00:05:42.950Z,44.10
2018-04-13T00:08:10.590Z,45.00
2018-04-13T00:10:38.305Z,44.60
2018-04-13T00:13:05.815Z,45.10
2018-04-13T00:15:34.112Z,45.60
2018-04-13T00:18:03.584Z,45.80
2018-04-13T00:20:31.293Z,46.30
2018-04-13T00:22:58.970Z,46.70
2018-04-13T00:25:26.511Z,46.20
2018-04-13T00:27:54.067Z,46.10
2018-04-13T00:30:21.621Z,46.70
2018-04-13T00:32:49.183Z,49.40
2018-04-13T00:35:16.760Z,46.80
2018-04-13T00:37:46.062Z,48.20
2018-04-13T00:40:13.584Z,48.40
2018-04-13T00:42:42.487Z,48.60
2018-04-13T00:45:10.095Z,48.30
2018-04-13T00:47:37.653Z,47.50
2018-04-13T00:50:05.316Z,49.70
2018-04-13T00:52:32.918Z,49.90
2018-04-13T00:55:01.258Z,49.40
2018-04-13T00:57:28.766Z,49.40
2018-04-13T00:59:56.436Z,46.60
2018-04-13T01:02:24.958Z,48.70
2018-04-13T01:04:53.464Z,48.80
2018-04-13T01:07:21.118Z,49.70
2018-04-13T01:09:48.653Z,51.00
2018-04-13T01:12:16.202Z,50.90
2018-04-13T01:14:43.829Z,50.40
2018-04-13T01:17:11.335Z,50.50
2018-04-13T01:19:39.636Z,50.60
2018-04-13T01:22:07.223Z,50.70
2018-04-13T01:24:35.067Z,51.90
2018-04-13T01:27:02.579Z,50.10
2018-04-13T01:29:30.101Z,51.30
2018-04-13T01:31:57.706Z,50.40
2018-04-13T01:34:25.251Z,51.30
2018-04-13T01:36:53.305Z,50.70
2018-04-13T01:39:20.850Z,50.20
2018-04-13T01:41:48.423Z,50.70
2018-04-13T01:44:16.080Z,50.60
2018-04-13T01:46:43.589Z,50.20
2018-04-13T01:49:12.612Z,50.90
2018-04-13T01:51:41.110Z,50.70
2018-04-13T01:54:08.621Z,51.60
2018-04-13T01:56:36.204Z,50.30
2018-04-13T01:59:03.871Z,51.30
2018-04-13T02:01:31.442Z,51.60
2018-04-13T02:03:59.016Z,52.30
2018-04-13T02:06:26.553Z,52.20
2018-04-13T02:08:54.067Z,52.70
2018-04-13T02:11:22.503Z,53.30
2018-04-13T02:13:50.133Z,51.60
2018-04-13T02:16:18.438Z,51.90
2018-04-13T02:18:45.957Z,52.00
2018-04-13T02:21:14.427Z,51.80
2018-04-13T02:23:41.988Z,51.90
2018-04-13T02:26:09.582Z,51.90
2018-04-13T02:28:38.069Z,53.30
2018-04-13T02:31:05.610Z,51.20
2018-04-13T02:33:33.220Z,50.40
2018-04-13T02:36:00.815Z,52.30
2018-04-13T02:38:28.355Z,52.20
2018-04-13T02:40:56.660Z,53.80
2018-04-13T02:43:24.281Z,53.80
2018-04-13T02:45:51.802Z,53.80
2018-04-13T02:48:19.408Z,57.00
2018-04-13T02:51:05.575Z,55.10
2018-04-13T02:53:34.011Z,54.90
2018-04-13T02:56:02.302Z,56.20
2018-04-13T02:58:29.925Z,56.20
2018-04-13T03:00:57.560Z,56.60
2018-04-13T03:03:25.094Z,55.80
2018-04-13T03:05:53.542Z,58.90
2018-04-13T03:08:21.986Z,59.00
2018-04-13T03:10:49.575Z,56.90
2018-04-13T03:13:17.217Z,57.10
2018-04-13T03:15:44.796Z,55.30
2018-04-13T03:18:12.356Z,58.90
2018-04-13T03:20:39.971Z,58.80
2018-04-13T03:23:07.597Z,59.50
2018-04-13T03:25:35.198Z,59.20
2018-04-13T03:28:02.768Z,61.10
2018-04-13T03:30:30.340Z,62.10
2018-04-13T03:32:57.974Z,60.40
2018-04-13T03:35:25.547Z,61.30
2018-04-13T03:37:53.145Z,60.60
2018-04-13T03:40:21.427Z,58.70
2018-04-13T03:42:49.739Z,59.10
2018-04-13T03:45:17.336Z,59.10
2018-04-13T03:47:44.861Z,61.00
2018-04-13T03:50:12.451Z,61.80
2018-04-13T03:52:40.045Z,59.50
2018-04-13T03:55:07.623Z,60.00
2018-04-13T03:57:36.169Z,59.10
2018-04-13T04:00:03.716Z,59.20
2018-04-13T04:02:31.247Z,55.50
2018-04-13T04:04:58.779Z,56.20
2018-04-13T04:07:26.314Z,55.90
2018-04-13T04:09:53.900Z,54.30
2018-04-13T04:12:21.494Z,54.00
2018-04-13T04:14:50.620Z,55.00
2018-04-13T04:17:18.200Z,53.00
2018-04-13T04:19:57.616Z,55.50
2018-04-13T04:22:37.013Z,53.60
2018-04-13T04:25:12.340Z,55.00
2018-04-13T04:27:39.988Z,55.40
2018-04-13T04:30:07.543Z,55.90
2018-04-13T04:32:35.843Z,54.60
2018-04-13T04:35:03.420Z,55.00
2018-04-13T04:37:30.978Z,54.40
2018-04-13T04:39:58.563Z,55.00
2018-04-13T04:42:26.095Z,55.00
2018-04-13T04:44:53.634Z,55.50
2018-04-13T04:47:21.184Z,54.80
2018-04-13T04:49:48.679Z,55.50
2018-04-13T04:52:16.226Z,56.30
2018-04-13T04:54:44.535Z,56.60
2018-04-13T04:57:12.071Z,57.20
2018-04-13T04:59:39.592Z,57.60
2018-04-13T05:02:07.362Z,58.10
2018-04-13T05:04:34.907Z,58.80
2018-04-13T05:07:02.405Z,58.90
2018-04-13T05:09:30.001Z,59.10
2018-04-13T05:11:57.622Z,59.40
2018-04-13T05:14:25.208Z,59.80
2018-04-13T05:16:52.739Z,59.70
2018-04-13T05:19:21.299Z,60.30
2018-04-13T05:21:50.518Z,60.50
2018-04-13T05:24:19.064Z,60.50
2018-04-13T05:26:46.596Z,60.50
2018-04-13T05:29:14.133Z,61.30
2018-04-13T05:31:41.747Z,60.90
2018-04-13T05:34:09.284Z,61.00
2018-04-13T05:36:36.864Z,61.50
2018-04-13T05:39:04.556Z,61.70
2018-04-13T05:41:33.023Z,61.50
2018-04-13T05:44:00.598Z,62.00
2018-04-13T05:46:28.209Z,61.70
2018-04-13T05:48:55.803Z,62.30
2018-04-13T05:51:23.381Z,61.70
2018-04-13T05:53:51.221Z,62.10
2018-04-13T05:56:18.729Z,62.20
2018-04-13T05:58:46.261Z,62.30
2018-04-13T06:01:13.806Z,62.10
2018-04-13T06:04:00.004Z,62.50
2018-04-13T06:06:27.558Z,63.50
2018-04-13T06:08:55.858Z,63.00
2018-04-13T06:11:23.425Z,64.00
2018-04-13T06:13:50.959Z,64.10
2018-04-13T06:16:18.517Z,63.20
2018-04-13T06:18:46.113Z,63.90
2018-04-13T06:21:14.600Z,63.90
2018-04-13T06:23:43.026Z,65.50
2018-04-13T06:26:10.535Z,64.40
2018-04-13T06:28:38.961Z,64.60
2018-04-13T06:31:07.545Z,65.60
2018-04-13T06:33:35.057Z,64.20
2018-04-13T06:36:02.657Z,64.70
2018-04-13T06:38:30.227Z,63.80
2018-04-13T06:40:57.760Z,62.80
2018-04-13T06:43:25.658Z,63.10
2018-04-13T06:45:53.155Z,63.00
2018-04-13T06:48:20.654Z,61.70
2018-04-13T06:50:48.216Z,62.70
2018-04-13T06:53:18.735Z,62.80
2018-04-13T06:55:46.443Z,62.10
2018-04-13T06:58:13.991Z,61.80
2018-04-13T07:00:43.300Z,63.00
2018-04-13T07:03:10.940Z,63.00
2018-04-13T07:05:38.467Z,63.10
2018-04-13T07:08:05.982Z,61.40
2018-04-13T07:10:34.269Z,60.90
2018-04-13T07:13:01.861Z,60.90
2018-04-13T07:15:29.377Z,61.10
2018-04-13T07:17:56.943Z,61.60
2018-04-13T07:20:24.586Z,61.70
2018-04-13T07:22:52.152Z,61.00
2018-04-13T07:25:19.750Z,60.70
2018-04-13T07:27:49.039Z,62.00
2018-04-13T07:30:17.858Z,61.50
2018-04-13T07:32:45.475Z,62.40
2018-04-13T07:35:13.382Z,60.10
2018-04-13T07:37:41.495Z,61.50
2018-04-13T07:40:09.928Z,61.50
2018-04-13T07:42:40.466Z,61.10
2018-04-13T07:45:09.232Z,60.70
2018-04-13T07:47:36.744Z,60.50
2018-04-13T07:50:04.303Z,62.00
2018-04-13T07:52:32.271Z,61.60
2018-04-13T07:54:59.786Z,62.60
2018-04-13T07:57:27.456Z,63.70
2018-04-13T07:59:55.888Z,61.40
2018-04-13T08:02:23.623Z,61.60
2018-04-13T08:04:51.054Z,61.30
2018-04-13T08:07:19.379Z,60.10
2018-04-13T08:09:47.925Z,60.10
2018-04-13T08:12:15.616Z,60.10
2018-04-13T08:14:43.094Z,60.60
2018-04-13T08:17:10.601Z,61.20
2018-04-13T08:19:38.156Z,60.80
2018-04-13T08:22:05.948Z,63.30
2018-04-13T08:24:34.150Z,62.00
2018-04-13T08:27:01.763Z,59.60
2018-04-13T08:29:29.349Z,61.00
2018-04-13T08:31:56.891Z,60.80
2018-04-13T08:34:25.451Z,60.30
2018-04-13T08:36:53.735Z,60.80
2018-04-13T08:39:21.316Z,60.80
2018-04-13T08:41:49.876Z,59.10
2018-04-13T08:44:17.372Z,59.60
2018-04-13T08:46:44.889Z,59.50
2018-04-13T08:49:12.564Z,58.50
2018-04-13T08:51:41.957Z,58.90
2018-04-13T08:54:09.539Z,59.90
2018-04-13T08:56:37.237Z,58.90
2018-04-13T08:59:05.717Z,60.20
2018-04-13T09:01:34.213Z,59.70
2018-04-13T09:04:01.750Z,59.30
2018-04-13T09:06:30.255Z,58.70
2018-04-13T09:09:16.393Z,58.60
2018-04-13T09:11:43.881Z,58.60
2018-04-13T09:14:11.446Z,59.00
2018-04-13T09:16:39.046Z,59.20
2018-04-13T09:19:08.342Z,59.60
2018-04-13T09:21:35.877Z,59.60
2018-04-13T09:24:03.428Z,60.80
2018-04-13T09:26:50.268Z,58.20
2018-04-13T09:31:59.702Z,58.80
2018-04-13T09:34:27.224Z,59.10
2018-04-13T09:36:54.735Z,57.30
2018-04-13T09:39:23.212Z,58.80
2018-04-13T09:41:50.792Z,58.20
2018-04-13T09:44:18.477Z,60.70
2018-04-13T09:46:45.958Z,58.70
2018-04-13T09:49:13.563Z,59.60
2018-04-13T09:51:42.007Z,59.70
2018-04-13T09:54:09.785Z,60.30
2018-04-13T09:56:38.151Z,61.10
2018-04-13T09:59:05.635Z,59.80
2018-04-13T10:01:39.156Z,59.50
2018-04-13T10:04:13.581Z,59.40
2018-04-13T10:07:00.303Z,60.10
2018-04-13T10:09:27.906Z,58.60
2018-04-13T10:14:36.443Z,59.60
2018-04-13T10:17:06.381Z,59.70
2018-04-13T10:19:33.917Z,59.80
2018-04-13T10:22:01.484Z,60.30
2018-04-13T10:24:30.966Z,59.50
2018-04-13T10:26:58.491Z,59.20
2018-04-13T10:29:25.998Z,59.30
2018-04-13T10:31:53.729Z,60.20
2018-04-13T10:34:22.992Z,59.80
2018-04-13T10:36:51.455Z,59.80
2018-04-13T10:39:19.024Z,60.50
2018-04-13T10:41:46.758Z,59.20
2018-04-13T10:44:14.365Z,60.00
2018-04-13T10:46:41.924Z,57.70
2018-04-13T10:49:09.414Z,61.00
2018-04-13T10:51:56.992Z,58.60
2018-04-13T10:54:24.600Z,58.90
2018-04-13T10:59:51.571Z,58.20
2018-04-13T11:02:20.039Z,57.90
2018-04-13T11:04:47.534Z,57.20
2018-04-13T11:07:16.769Z,57.30
2018-04-13T11:09:45.292Z,57.20
2018-04-13T11:12:13.781Z,57.30
2018-04-13T11:14:59.273Z,58.60
2018-04-13T11:17:27.722Z,58.20
2018-04-13T11:19:55.262Z,59.70
2018-04-13T11:22:22.809Z,58.30
2018-04-13T11:24:51.127Z,59.60
2018-04-13T11:27:19.559Z,59.70
2018-04-13T11:29:47.927Z,60.80
2018-04-13T11:32:16.212Z,58.90
2018-04-13T11:34:44.755Z,56.00
2018-04-13T11:37:14.637Z,56.00
2018-04-13T11:39:42.224Z,57.40
2018-04-13T11:42:11.767Z,57.50
2018-04-13T11:44:40.396Z,55.20
2018-04-13T11:47:07.912Z,55.50
2018-04-13T11:49:36.420Z,56.90
2018-04-13T11:52:04.093Z,56.80
2018-04-13T11:54:31.663Z,57.30
2018-04-13T11:56:59.313Z,56.80
2018-04-13T11:59:27.105Z,54.60
2018-04-13T12:01:54.771Z,57.10
2018-04-13T12:04:23.085Z,56.60
2018-04-13T12:06:50.665Z,56.70
2018-04-13T12:09:19.164Z,55.20
2018-04-13T12:11:47.112Z,56.10
2018-04-13T12:14:15.775Z,57.10
2018-04-13T12:16:43.325Z,57.40
2018-04-13T12:19:10.860Z,53.90
2018-04-13T12:21:38.372Z,54.70
2018-04-13T12:24:07.594Z,53.70
2018-04-13T12:26:35.105Z,53.80
2018-04-13T12:29:02.949Z,55.50
2018-04-13T12:31:30.544Z,54.60
2018-04-13T12:33:59.175Z,55.20
2018-04-13T12:36:27.820Z,56.10
2018-04-13T12:38:55.379Z,55.50
2018-04-13T12:41:23.759Z,54.70
2018-04-13T12:43:51.403Z,54.80
2018-04-13T12:46:20.413Z,54.30
2018-04-13T12:48:47.993Z,54.50
2018-04-13T12:51:17.473Z,54.10
2018-04-13T12:53:45.062Z,52.30
2018-04-13T12:56:14.148Z,53.80
2018-04-13T12:58:42.410Z,53.10
2018-04-13T13:01:10.893Z,53.30
2018-04-13T13:03:40.372Z,53.10
2018-04-13T13:06:07.963Z,53.50
2018-04-13T13:08:36.451Z,52.70
2018-04-13T13:11:04.116Z,52.80
2018-04-13T13:13:31.698Z,51.90
2018-04-13T13:15:59.634Z,53.00
2018-04-13T13:18:27.178Z,52.20
2018-04-13T13:20:56.730Z,51.60
2018-04-13T13:23:24.358Z,52.40
2018-04-13T13:25:52.889Z,53.60
2018-04-13T13:28:22.337Z,52.20
2018-04-13T13:30:50.001Z,50.60
2018-04-13T13:33:17.832Z,52.80
2018-04-13T13:35:45.340Z,51.30
2018-04-13T13:38:13.780Z,51.10
2018-04-13T13:41:00.323Z,52.50
2018-04-13T13:43:29.751Z,51.90
2018-04-13T13:45:57.278Z,52.20
2018-04-13T13:48:24.991Z,51.10
2018-04-13T13:50:54.288Z,51.80
2018-04-13T13:53:22.566Z,52.00
2018-04-13T13:55:50.138Z,50.60
2018-04-13T13:58:18.416Z,48.50
2018-04-13T14:00:46.052Z,48.60
2018-04-13T14:03:13.592Z,50.30
2018-04-13T14:05:42.194Z,51.50
2018-04-13T14:08:09.728Z,53.20
2018-04-13T14:10:38.201Z,52.40
2018-04-13T14:13:06.525Z,53.30
2018-04-13T14:15:34.170Z,53.30
2018-04-13T14:18:01.924Z,52.90
2018-04-13T14:20:30.308Z,51.40
2018-04-13T14:22:58.774Z,51.30
2018-04-13T14:25:27.331Z,51.70
2018-04-13T14:30:54.580Z,51.00
2018-04-13T14:33:22.670Z,52.50
2018-04-13T14:35:50.304Z,52.10
2018-04-13T14:38:19.390Z,51.50
2018-04-13T14:40:46.914Z,50.60
2018-04-13T14:43:14.437Z,52.00
2018-04-13T14:45:42.129Z,52.00
2018-04-13T14:48:09.710Z,51.70
2018-04-13T14:53:37.432Z,51.90
2018-04-13T14:56:05.034Z,52.80
2018-04-13T14:58:33.546Z,53.10
2018-04-13T15:01:02.032Z,54.50
2018-04-13T15:03:30.555Z,52.10
2018-04-13T15:05:58.057Z,52.40
2018-04-13T15:08:25.565Z,51.30
2018-04-13T15:10:53.191Z,50.90
2018-04-13T15:13:24.643Z,52.80
2018-04-13T15:15:53.788Z,51.80
2018-04-13T15:18:22.140Z,52.20
2018-04-13T15:20:50.426Z,52.00
2018-04-13T15:23:17.940Z,51.90
2018-04-13T15:25:46.556Z,52.20
2018-04-13T15:28:14.124Z,53.20
2018-04-13T15:30:42.853Z,52.10
2018-04-13T15:33:10.498Z,50.30
2018-04-13T15:35:57.184Z,51.90
2018-04-13T15:38:25.010Z,53.40
2018-04-13T15:40:52.921Z,52.90
2018-04-13T15:46:08.298Z,52.00
2018-04-13T15:48:35.893Z,51.70
2018-04-13T15:51:04.196Z,50.10
2018-04-13T15:53:32.725Z,50.10
2018-04-13T15:56:00.305Z,47.20
2018-04-13T15:58:27.926Z,47.30
2018-04-13T16:00:55.620Z,47.70
2018-04-13T16:03:23.132Z,48.80
2018-04-13T16:05:51.400Z,49.70
2018-04-13T16:08:19.029Z,49.70
2018-04-13T16:10:46.577Z,50.00
2018-04-13T16:13:14.147Z,50.50
2018-04-13T16:15:41.803Z,49.40
2018-04-13T16:18:09.347Z,47.60
2018-04-13T16:20:37.640Z,47.10
2018-04-13T16:23:05.244Z,47.10
2018-04-13T16:25:32.744Z,46.20
2018-04-13T16:28:00.237Z,47.10
2018-04-13T16:30:27.799Z,47.40
2018-04-13T16:32:55.339Z,46.70
2018-04-13T16:35:22.961Z,47.90
2018-04-13T16:37:50.534Z,46.40
2018-04-13T16:40:18.096Z,47.30
2018-04-13T16:42:45.663Z,49.50
2018-04-13T16:45:13.222Z,47.20
2018-04-13T16:47:40.829Z,47.80
2018-04-13T16:50:08.425Z,47.60
2018-04-13T16:52:35.928Z,47.50
2018-04-13T16:55:03.519Z,48.00
2018-04-13T16:57:31.086Z,48.80
2018-04-13T16:59:59.430Z,49.30
2018-04-13T17:02:27.949Z,49.30
2018-04-13T17:04:55.450Z,49.90
2018-04-13T17:07:24.017Z,49.40
2018-04-13T17:09:52.372Z,48.30
2018-04-13T17:12:19.886Z,48.20
2018-04-13T17:14:47.433Z,48.00
2018-04-13T17:17:15.773Z,49.70
2018-04-13T17:19:43.316Z,49.60
2018-04-13T17:22:10.918Z,49.90
2018-04-13T17:24:38.422Z,50.00
2018-04-13T17:27:06.756Z,50.00
2018-04-13T17:29:35.258Z,50.00
2018-04-13T17:32:02.864Z,51.10
2018-04-13T17:34:30.433Z,51.60
2018-04-13T17:36:57.996Z,51.60
2018-04-13T17:39:25.697Z,52.80
2018-04-13T17:41:53.247Z,52.70
2018-04-13T17:44:20.810Z,53.70
2018-04-13T17:47:06.943Z,53.20
2018-04-13T17:52:16.323Z,54.00
2018-04-13T17:54:44.022Z,53.90
2018-04-13T17:57:11.538Z,54.10
2018-04-13T17:59:40.905Z,55.20
2018-04-13T18:02:08.596Z,55.20
2018-04-13T18:04:36.142Z,55.50
2018-04-13T18:07:03.746Z,54.20
2018-04-13T18:09:32.997Z,54.30
2018-04-13T18:12:00.504Z,54.20
2018-04-13T18:14:28.964Z,55.80
2018-04-13T18:16:59.465Z,55.90
2018-04-13T18:19:26.971Z,56.10
2018-04-13T18:21:54.529Z,56.30
2018-04-13T18:24:23.976Z,57.40
2018-04-13T18:29:52.059Z,56.80
2018-04-13T18:32:20.584Z,56.90
2018-04-13T18:34:49.170Z,56.10
2018-04-13T18:37:16.786Z,55.80
2018-04-13T18:39:44.406Z,58.90
2018-04-13T18:42:14.911Z,59.70
2018-04-13T18:44:42.497Z,60.00
2018-04-13T18:47:10.096Z,56.90
2018-04-13T18:49:37.652Z,56.20
2018-04-13T18:52:07.224Z,55.80
2018-04-13T18:54:34.836Z,56.50
2018-04-13T18:57:02.383Z,57.50
2018-04-13T18:59:30.010Z,57.50
2018-04-13T19:01:57.542Z,59.10
2018-04-13T19:04:25.119Z,59.50
2018-04-13T19:06:53.615Z,63.50
2018-04-13T19:09:22.153Z,63.40
2018-04-13T19:11:49.703Z,62.70
2018-04-13T19:14:18.204Z,62.80
2018-04-13T19:16:45.795Z,61.80
2018-04-13T19:19:13.385Z,62.70
2018-04-13T19:21:41.348Z,62.10
2018-04-13T19:24:09.068Z,62.80
2018-04-13T19:26:36.589Z,62.60
2018-04-13T19:29:05.044Z,63.10
2018-04-13T19:31:33.500Z,63.30
2018-04-13T19:34:02.766Z,63.50
2018-04-13T19:36:32.263Z,63.60
2018-04-13T19:39:01.469Z,64.90
2018-04-13T19:41:29.786Z,64.30
2018-04-13T19:43:59.290Z,64.30
2018-04-13T19:46:28.750Z,64.90
2018-04-13T19:48:56.511Z,64.50
2018-04-13T19:51:24.096Z,64.80
2018-04-13T19:53:52.517Z,66.50
2018-04-13T19:56:20.043Z,66.50
2018-04-13T19:58:48.388Z,66.20
2018-04-13T20:01:15.968Z,66.20
2018-04-13T20:03:43.643Z,66.10
2018-04-13T20:06:11.130Z,66.60
2018-04-13T20:08:39.681Z,67.80
2018-04-13T20:14:09.139Z,67.10
2018-04-13T20:16:36.697Z,68.70
2018-04-13T20:19:04.255Z,69.50
2018-04-13T20:21:32.725Z,69.90
2018-04-13T20:24:00.404Z,69.80
2018-04-13T20:26:27.991Z,70.20
2018-04-13T20:28:55.531Z,69.70
2018-04-13T20:31:23.125Z,69.30
2018-04-13T20:33:50.700Z,69.30
2018-04-13T20:36:18.236Z,69.30
2018-04-13T20:38:45.796Z,69.20
2018-04-13T20:41:13.752Z,70.00
2018-04-13T20:43:41.277Z,70.30
2018-04-13T20:46:09.625Z,71.80
2018-04-13T20:48:37.204Z,71.80
2018-04-13T20:51:04.716Z,70.30
2018-04-13T20:53:32.364Z,70.60
2018-04-13T20:56:00.741Z,71.60
2018-04-13T20:58:29.042Z,72.00
2018-04-13T21:00:56.732Z,72.00
2018-04-13T21:03:24.234Z,71.80
2018-04-13T21:05:51.810Z,72.20
2018-04-13T21:08:19.501Z,71.70
2018-04-13T21:10:47.019Z,71.60
2018-04-13T21:13:14.518Z,71.80
2018-04-13T21:15:42.883Z,72.70
2018-04-13T21:18:10.451Z,72.70
2018-04-13T21:20:37.963Z,73.10
2018-04-13T21:23:05.589Z,75.90
2018-04-13T21:25:33.199Z,76.40
2018-04-13T21:28:00.721Z,75.90
2018-04-13T21:30:28.853Z,76.70
2018-04-13T21:32:56.976Z,78.70
2018-04-13T21:35:24.570Z,79.20
2018-04-13T21:37:52.203Z,79.20
2018-04-13T21:40:19.867Z,78.50
2018-04-13T21:42:47.383Z,79.40
2018-04-13T21:45:15.000Z,78.20
2018-04-13T21:47:43.295Z,77.90
2018-04-13T21:50:12.272Z,78.40
2018-04-13T21:52:39.830Z,78.50
2018-04-13T21:55:07.401Z,77.70
2018-04-13T21:57:36.897Z,78.60
2018-04-13T22:00:05.465Z,77.60
2018-04-13T22:02:33.074Z,77.90
2018-04-13T22:05:00.632Z,77.50
2018-04-13T22:07:28.255Z,77.80
2018-04-13T22:09:55.910Z,78.90
2018-04-13T22:12:35.208Z,78.90
2018-04-13T22:15:03.515Z,79.40
2018-04-13T22:17:31.075Z,79.00
2018-04-13T22:20:00.599Z,78.90
2018-04-13T22:22:28.156Z,78.00
2018-04-13T22:24:55.761Z,78.80
2018-04-13T22:27:23.456Z,80.00
2018-04-13T22:29:50.974Z,79.70
2018-04-13T22:32:18.540Z,79.50
2018-04-13T22:34:46.140Z,79.60
2018-04-13T22:37:14.641Z,80.30
2018-04-13T22:39:42.815Z,80.60
2018-04-13T22:42:10.352Z,81.30
2018-04-13T22:44:37.870Z,81.30
2018-04-13T22:47:08.125Z,81.70
2018-04-13T22:49:35.682Z,81.80
2018-04-13T22:52:03.227Z,81.80
2018-04-13T22:54:31.519Z,81.40
2018-04-13T22:56:59.051Z,81.40
2018-04-13T22:59:26.651Z,81.80
2018-04-13T23:01:54.256Z,80.30
2018-04-13T23:04:21.867Z,80.80
2018-04-13T23:06:50.157Z,81.10
2018-04-13T23:09:18.482Z,80.60
2018-04-13T23:11:46.066Z,80.60
2018-04-13T23:14:14.523Z,81.50
2018-04-13T23:16:42.125Z,82.70
2018-04-13T23:19:09.836Z,81.30
2018-04-13T23:21:37.404Z,81.70
2018-04-13T23:24:05.924Z,81.50
2018-04-13T23:26:34.449Z,85.00
2018-04-13T23:29:02.088Z,83.90
2018-04-13T23:31:30.604Z,81.30
2018-04-13T23:33:59.150Z,82.10
2018-04-13T23:36:26.683Z,82.20
2018-04-13T23:38:54.189Z,83.60
2018-04-13T23:41:22.684Z,84.30
2018-04-13T23:43:51.114Z,84.50
2018-04-13T23:46:18.626Z,87.40
2018-04-13T23:48:46.152Z,85.70
2018-04-13T23:51:13.728Z,85.10
2018-04-13T23:53:41.349Z,85.60
2018-04-13T23:56:08.880Z,84.60
2018-04-13T23:58:36.452Z,84.70
